Time;durP1;ratioP1;P1;durP2;ratioP2;P2;SDS_P1;SDS_P2;PMS_P1;PMS_P2;Temp;Humidity;BMP_temperature;BMP_pressure;BME280_temperature;BME280_humidity;BME280_pressure;Samples;Min_cycle;Max_cycle;Signal;HPM_P1;HPM_P2
2022/08/13 00:01:40;;;;;;;1.95;1.05;;;20.50;64.10;;;;;;5011888;28;20049;-81
2022/08/13 00:04:16;;;;;;;1.55;1.00;;;20.40;64.30;;;;;;5015614;28;20022;-82
2022/08/13 00:09:11;;;;;;;1.17;0.80;;;20.40;64.70;;;;;;5019287;28;20030;-82
2022/08/13 00:14:37;;;;;;;1.30;0.98;;;20.30;65.20;;;;;;5011681;28;20080;-81
2022/08/13 00:17:14;;;;;;;2.45;1.17;;;20.30;65.30;;;;;;5014717;28;20054;-82
2022/08/13 00:19:43;;;;;;;2.05;0.98;;;20.30;65.50;;;;;;5017068;28;20525;-81
2022/08/13 00:22:09;;;;;;;2.10;1.00;;;20.30;65.70;;;;;;5014031;28;20057;-82
2022/08/13 00:24:38;;;;;;;4.30;1.15;;;20.20;65.80;;;;;;5015592;28;20123;-81
2022/08/13 00:27:05;;;;;;;1.88;0.93;;;20.20;65.80;;;;;;5013866;28;20376;-81
2022/08/13 00:29:36;;;;;;;1.38;1.00;;;20.20;66.00;;;;;;5018103;28;20390;-82
2022/08/13 00:32:07;;;;;;;1.23;1.00;;;20.20;66.10;;;;;;5017905;28;20478;-82
2022/08/13 00:34:43;;;;;;;1.27;0.80;;;20.20;66.20;;;;;;5018442;28;20018;-81
2022/08/13 00:37:09;;;;;;;1.52;1.00;;;20.20;66.30;;;;;;5012942;28;20022;-81
2022/08/13 00:39:41;;;;;;;1.15;0.95;;;20.10;66.90;;;;;;5016305;28;20033;-81
2022/08/13 00:42:10;;;;;;;1.45;1.10;;;20.10;66.50;;;;;;5022614;28;20033;-81
2022/08/13 00:44:38;;;;;;;1.38;1.00;;;20.10;66.60;;;;;;5025483;28;20018;-81
2022/08/13 00:49:49;;;;;;;1.27;1.08;;;20.10;66.90;;;;;;5026304;28;20045;-81
2022/08/13 00:52:14;;;;;;;2.47;1.15;;;20.00;66.80;;;;;;5024845;28;20034;-81
2022/08/13 00:54:48;;;;;;;1.77;1.23;;;20.00;66.60;;;;;;5024902;28;20075;-81
2022/08/13 00:57:19;;;;;;;1.63;1.10;;;19.90;66.70;;;;;;5024914;28;20030;-80
2022/08/13 00:59:50;;;;;;;3.15;1.35;;;19.90;66.80;;;;;;5025046;28;20050;-81
2022/08/13 01:02:21;;;;;;;2.65;1.10;;;19.80;67.10;;;;;;5024534;28;20029;-82
2022/08/13 01:04:47;;;;;;;2.67;1.17;;;19.80;67.10;;;;;;5024399;28;20014;-81
2022/08/13 01:07:19;;;;;;;2.88;1.27;;;19.80;67.10;;;;;;5025929;28;20470;-81
2022/08/13 01:09:45;;;;;;;2.20;1.10;;;19.70;67.20;;;;;;5024746;28;20129;-80
2022/08/13 01:12:13;;;;;;;1.98;1.25;;;19.60;67.30;;;;;;5025160;28;20022;-80
2022/08/13 01:14:39;;;;;;;2.00;1.25;;;19.60;67.80;;;;;;5025918;28;20061;-80
2022/08/13 01:17:12;;;;;;;2.53;1.17;;;19.50;68.70;;;;;;5023277;28;20026;-81
2022/08/13 01:19:39;;;;;;;2.55;1.20;;;19.50;68.50;;;;;;5024031;28;20028;-81
2022/08/13 01:22:05;;;;;;;2.42;1.10;;;19.40;68.90;;;;;;5023417;28;20025;-81
2022/08/13 01:24:43;;;;;;;1.27;1.10;;;19.40;69.20;;;;;;5024401;28;20045;-81
2022/08/13 01:27:18;;;;;;;4.03;1.58;;;19.40;69.50;;;;;;5024356;28;20022;-81
2022/08/13 01:29:46;;;;;;;3.72;1.00;;;19.40;69.60;;;;;;5023754;28;20053;-81
2022/08/13 01:32:15;;;;;;;2.03;1.20;;;19.30;69.80;;;;;;5023937;28;20084;-81
2022/08/13 01:35:01;;;;;;;1.60;1.20;;;19.30;70.00;;;;;;5024642;28;20018;-82
2022/08/13 01:37:34;;;;;;;2.55;1.10;;;19.30;70.40;;;;;;5022876;28;20061;-81
2022/08/13 01:40:05;;;;;;;2.33;1.20;;;19.30;70.20;;;;;;5024456;28;20026;-81
2022/08/13 01:42:42;;;;;;;3.45;1.60;;;19.20;70.80;;;;;;5025586;28;20045;-80
2022/08/13 01:45:18;;;;;;;1.75;1.20;;;19.20;70.50;;;;;;5024261;28;20022;-81
2022/08/13 01:50:29;;;;;;;1.30;1.10;;;19.00;70.80;;;;;;5025167;28;20076;-81
2022/08/13 01:53:04;;;;;;;1.38;1.10;;;18.90;71.20;;;;;;5024313;28;20041;-80
2022/08/13 01:55:40;;;;;;;1.95;1.15;;;18.90;71.40;;;;;;5023800;28;20033;-82
2022/08/13 01:58:08;;;;;;;3.22;1.30;;;18.80;71.80;;;;;;5023645;28;20034;-81
2022/08/13 02:00:36;;;;;;;4.03;1.02;;;18.80;71.90;;;;;;5024956;28;20037;-82
2022/08/13 02:03:16;;;;;;;4.72;1.40;;;18.70;72.10;;;;;;5022996;28;20022;-81
2022/08/13 02:05:51;;;;;;;1.60;1.08;;;18.70;72.20;;;;;;5023297;28;20089;-81
2022/08/13 02:08:23;;;;;;;1.98;1.33;;;18.70;72.10;;;;;;5024455;28;20506;-81
2022/08/13 02:10:52;;;;;;;3.28;1.02;;;18.60;72.20;;;;;;5024139;28;20034;-82
2022/08/13 02:13:28;;;;;;;1.35;1.23;;;18.60;72.30;;;;;;5024928;28;20029;-81
2022/08/13 02:15:57;;;;;;;1.42;1.10;;;18.60;72.30;;;;;;5022858;28;20033;-80
2022/08/13 02:18:26;;;;;;;3.92;1.30;;;18.50;72.30;;;;;;5023354;28;20041;-82
2022/08/13 02:20:59;;;;;;;5.70;1.40;;;18.50;72.50;;;;;;5024754;28;20033;-82
2022/08/13 02:23:28;;;;;;;3.80;1.67;;;18.50;72.50;;;;;;5022802;28;20033;-81
2022/08/13 02:25:54;;;;;;;2.17;1.40;;;18.40;72.70;;;;;;5023322;28;20030;-82
2022/08/13 02:28:21;;;;;;;2.42;1.42;;;18.40;72.90;;;;;;5023403;28;20028;-81
2022/08/13 02:30:58;;;;;;;2.30;1.55;;;18.30;73.20;;;;;;5022248;28;20390;-80
2022/08/13 02:33:30;;;;;;;1.45;1.15;;;18.30;73.40;;;;;;5021200;28;20026;-81
2022/08/13 02:35:57;;;;;;;3.75;1.40;;;18.20;73.60;;;;;;5023423;28;20032;-80
2022/08/13 02:38:26;;;;;;;2.20;1.45;;;18.20;73.90;;;;;;5022366;28;20486;-80
2022/08/13 02:43:46;;;;;;;3.42;1.10;;;18.10;74.20;;;;;;5024057;28;20394;-82
2022/08/13 02:46:14;;;;;;;1.60;1.20;;;18.00;74.30;;;;;;5023312;28;20022;-81
2022/08/13 02:48:40;;;;;;;2.15;1.50;;;18.00;74.50;;;;;;5023725;28;20060;-81
2022/08/13 02:51:05;;;;;;;1.95;1.48;;;18.00;74.60;;;;;;5022351;28;20037;-80
2022/08/13 02:53:41;;;;;;;3.58;1.67;;;17.90;74.60;;;;;;5023579;28;20030;-80
2022/08/13 02:56:08;;;;;;;10.73;1.35;;;17.90;74.70;;;;;;5022145;28;20498;-81
2022/08/13 02:58:36;;;;;;;1.85;1.33;;;17.90;75.60;;;;;;5021992;28;20119;-80
2022/08/13 03:01:02;;;;;;;3.88;1.20;;;17.80;75.20;;;;;;5023092;28;20078;-81
2022/08/13 03:03:35;;;;;;;1.48;1.30;;;17.80;75.50;;;;;;5023433;28;20032;-80
2022/08/13 03:06:04;;;;;;;3.90;1.50;;;17.80;75.70;;;;;;5022809;28;20033;-80
2022/08/13 03:08:30;;;;;;;3.78;1.63;;;17.70;75.80;;;;;;5022730;28;20029;-81
2022/08/13 03:10:56;;;;;;;2.00;1.23;;;17.70;76.10;;;;;;5021950;28;20032;-81
2022/08/13 03:13:25;;;;;;;2.97;1.42;;;17.60;76.20;;;;;;5021115;28;20053;-80
2022/08/13 03:15:56;;;;;;;3.42;1.40;;;17.60;76.50;;;;;;5022798;28;20058;-81
2022/08/13 03:18:24;;;;;;;4.38;1.55;;;17.50;76.60;;;;;;5021879;28;20022;-81
2022/08/13 03:20:50;;;;;;;3.25;1.75;;;17.50;76.90;;;;;;5021936;28;20032;-82
2022/08/13 03:23:16;;;;;;;1.63;1.42;;;17.40;77.10;;;;;;5022388;28;20034;-81
2022/08/13 03:25:42;;;;;;;1.58;1.38;;;17.40;77.30;;;;;;5022132;28;20029;-81
2022/08/13 03:28:11;;;;;;;3.17;1.30;;;17.40;77.50;;;;;;5022439;28;20033;-82
2022/08/13 03:30:37;;;;;;;4.35;1.60;;;17.40;77.50;;;;;;5022234;28;20604;-82
2022/08/13 03:33:11;;;;;;;3.22;1.30;;;17.40;77.60;;;;;;5022157;28;20053;-80
2022/08/13 03:35:38;;;;;;;4.05;1.30;;;17.30;77.90;;;;;;5022294;28;20390;-80
2022/08/13 03:38:10;;;;;;;1.90;1.60;;;17.30;78.30;;;;;;5022716;28;20044;-81
2022/08/13 03:43:28;;;;;;;1.88;1.52;;;17.20;78.60;;;;;;5022442;28;20076;-81
2022/08/13 03:46:00;;;;;;;2.45;1.45;;;17.20;78.90;;;;;;5022942;28;20022;-81
2022/08/13 03:48:26;;;;;;;1.90;1.50;;;17.10;78.80;;;;;;5020630;28;20053;-80
2022/08/13 03:50:53;;;;;;;2.50;1.67;;;17.10;78.90;;;;;;5022976;28;20026;-80
2022/08/13 03:53:20;;;;;;;3.17;1.70;;;17.10;79.10;;;;;;5021260;28;20486;-80
2022/08/13 03:55:49;;;;;;;1.60;1.40;;;17.10;79.30;;;;;;5023147;28;20018;-80
2022/08/13 03:58:18;;;;;;;2.38;1.65;;;17.00;79.90;;;;;;5023394;28;20768;-81
2022/08/13 04:00:47;;;;;;;4.20;2.00;;;17.00;79.50;;;;;;5023146;28;20044;-80
2022/08/13 04:03:22;;;;;;;2.83;1.77;;;16.90;79.70;;;;;;5021730;28;20010;-80
2022/08/13 04:05:53;;;;;;;4.05;1.35;;;16.90;79.90;;;;;;5020059;28;20049;-80
2022/08/13 04:08:20;;;;;;;2.60;1.45;;;16.80;79.80;;;;;;5021059;28;20061;-80
2022/08/13 04:10:46;;;;;;;2.28;1.58;;;16.80;80.00;;;;;;5022411;28;20029;-81
2022/08/13 04:13:15;;;;;;;3.25;1.70;;;16.80;80.10;;;;;;5022513;28;20010;-80
2022/08/13 04:15:53;;;;;;;3.47;2.08;;;16.80;80.10;;;;;;5021946;28;20371;-81
2022/08/13 04:18:19;;;;;;;2.42;1.73;;;16.80;80.40;;;;;;5020557;28;20029;-81
2022/08/13 04:20:52;;;;;;;2.00;1.80;;;16.80;80.70;;;;;;5022650;28;20380;-81
2022/08/13 04:23:21;;;;;;;1.65;1.52;;;16.80;81.10;;;;;;5022152;28;20049;-81
2022/08/13 04:26:06;;;;;;;4.28;2.10;;;16.80;81.30;;;;;;5021522;28;20033;-81
2022/08/13 04:28:38;;;;;;;5.10;2.20;;;16.80;81.50;;;;;;5022279;28;20026;-81
2022/08/13 04:31:05;;;;;;;6.25;1.70;;;16.80;81.60;;;;;;5025632;28;20434;-81
2022/08/13 04:33:37;;;;;;;3.25;1.88;;;16.80;81.60;;;;;;5026690;28;20030;-81
2022/08/13 04:36:12;;;;;;;2.97;1.77;;;16.80;81.70;;;;;;5025867;28;20050;-81
2022/08/13 04:38:38;;;;;;;3.20;1.67;;;16.80;81.70;;;;;;5024110;28;20041;-81
2022/08/13 04:41:04;;;;;;;2.42;1.70;;;16.80;81.70;;;;;;5026947;28;20055;-81
2022/08/13 04:43:30;;;;;;;2.05;1.55;;;16.70;81.70;;;;;;5026263;28;20026;-82
2022/08/13 04:45:58;;;;;;;3.65;1.92;;;16.70;81.70;;;;;;5024462;28;20034;-82
2022/08/13 04:48:25;;;;;;;2.30;1.90;;;16.70;81.80;;;;;;5024884;28;20025;-81
2022/08/13 04:51:05;;;;;;;3.15;2.03;;;16.70;82.00;;;;;;5025054;28;20026;-80
2022/08/13 04:53:49;;;;;;;2.83;1.98;;;16.70;82.10;;;;;;5025607;28;20022;-80
2022/08/13 04:56:20;;;;;;;6.07;2.10;;;16.60;82.10;;;;;;5025910;28;20038;-81
2022/08/13 04:58:49;;;;;;;2.58;1.65;;;16.60;82.00;;;;;;5026884;28;20029;-81
2022/08/13 05:01:18;;;;;;;2.47;1.80;;;16.60;82.70;;;;;;5025397;28;20061;-80
2022/08/13 05:03:47;;;;;;;2.75;1.50;;;16.60;82.20;;;;;;5025372;28;20053;-81
2022/08/13 05:06:18;;;;;;;2.58;1.75;;;16.60;82.20;;;;;;5025756;28;20360;-81
2022/08/13 05:08:49;;;;;;;2.58;1.80;;;16.50;82.20;;;;;;5025763;28;20026;-81
2022/08/13 05:11:19;;;;;;;3.97;1.75;;;16.50;82.40;;;;;;5025543;28;20052;-81
2022/08/13 05:13:46;;;;;;;3.97;1.90;;;16.60;82.70;;;;;;5025271;28;20021;-80
2022/08/13 05:16:17;;;;;;;2.72;2.10;;;16.70;82.60;;;;;;5023082;28;20034;-81
2022/08/13 05:18:45;;;;;;;3.45;1.88;;;16.80;82.30;;;;;;5023887;28;20033;-80
2022/08/13 05:21:14;;;;;;;4.88;2.20;;;16.90;82.10;;;;;;5026391;28;20418;-81
2022/08/13 05:23:53;;;;;;;3.65;2.70;;;17.10;81.60;;;;;;5020646;28;20425;-80
2022/08/13 05:26:23;;;;;;;8.35;3.20;;;17.30;81.20;;;;;;5013082;28;20048;-79
2022/08/13 05:28:49;;;;;;;9.30;2.97;;;17.40;81.10;;;;;;5015294;28;20023;-79
2022/08/13 05:31:17;;;;;;;5.05;3.00;;;17.60;80.50;;;;;;5010016;28;20568;-79
2022/08/13 05:33:42;;;;;;;4.03;2.22;;;17.70;80.20;;;;;;5006110;28;20033;-80
2022/08/13 05:36:09;;;;;;;4.78;3.17;;;17.80;79.80;;;;;;5012029;28;20034;-77
2022/08/13 05:38:41;;;;;;;6.22;3.00;;;18.00;79.30;;;;;;5022511;28;20129;-76
2022/08/13 05:41:12;;;;;;;5.10;3.00;;;18.10;78.90;;;;;;5009754;28;20029;-77
2022/08/13 05:43:38;;;;;;;4.85;3.17;;;18.20;78.50;;;;;;5011967;28;20030;-77
2022/08/13 05:46:07;;;;;;;7.05;2.70;;;18.40;78.10;;;;;;5008927;28;20053;-77
2022/08/13 05:48:32;;;;;;;2.72;2.17;;;18.40;77.70;;;;;;5008179;28;20073;-76
2022/08/13 05:51:03;;;;;;;2.70;2.03;;;18.50;77.70;;;;;;5012840;28;20509;-76
2022/08/13 05:53:32;;;;;;;2.65;2.05;;;18.70;77.30;;;;;;5007761;28;20105;-77
2022/08/13 05:56:05;;;;;;;6.32;2.47;;;18.90;76.90;;;;;;5011696;28;20152;-83
2022/08/13 05:58:34;;;;;;;3.10;2.42;;;19.00;76.30;;;;;;5017454;28;20364;-82
2022/08/13 06:03:47;;;;;;;3.05;2.65;;;19.30;75.40;;;;;;5018218;28;20021;-82
2022/08/13 06:06:16;;;;;;;2.67;2.17;;;19.40;74.80;;;;;;5017334;28;20029;-81
2022/08/13 06:08:43;;;;;;;3.92;2.40;;;19.50;74.50;;;;;;5017965;28;20026;-84
2022/08/13 06:11:11;;;;;;;3.65;2.20;;;19.60;74.90;;;;;;5028331;28;20026;-82
2022/08/13 06:13:40;;;;;;;3.00;2.38;;;19.60;74.10;;;;;;5017572;28;20481;-84
2022/08/13 06:16:08;;;;;;;3.35;2.40;;;19.60;73.80;;;;;;5017212;28;20022;-84
2022/08/13 06:18:36;;;;;;;3.03;2.53;;;19.60;73.70;;;;;;5017265;28;20030;-85
2022/08/13 06:21:07;;;;;;;2.80;2.40;;;19.60;73.70;;;;;;5019258;28;20022;-84
2022/08/13 06:23:36;;;;;;;5.15;2.38;;;19.50;74.30;;;;;;5017609;28;20022;-83
2022/08/13 06:26:11;;;;;;;3.97;2.63;;;19.60;73.70;;;;;;5017587;28;20057;-84
2022/08/13 06:28:39;;;;;;;3.78;2.10;;;19.50;73.90;;;;;;5018373;28;20029;-83
2022/08/13 06:31:25;;;;;;;4.50;2.92;;;19.50;74.10;;;;;;5018582;28;20088;-84
2022/08/13 06:34:00;;;;;;;3.15;2.40;;;19.50;74.20;;;;;;5017688;28;20037;-83
2022/08/13 06:36:29;;;;;;;2.72;2.20;;;19.60;74.20;;;;;;5017843;28;20113;-83
2022/08/13 06:39:00;;;;;;;3.10;2.60;;;19.50;73.90;;;;;;5017689;28;20080;-84
2022/08/13 06:41:31;;;;;;;3.83;2.55;;;19.50;73.90;;;;;;5015518;28;20019;-84
2022/08/13 06:44:03;;;;;;;4.90;2.83;;;19.50;74.10;;;;;;4999623;28;20027;-84
2022/08/13 06:46:30;;;;;;;3.88;2.40;;;19.50;74.30;;;;;;5020337;28;20471;-85
2022/08/13 06:49:01;;;;;;;2.85;2.38;;;19.60;74.10;;;;;;5016716;28;20033;-83
2022/08/13 06:51:27;;;;;;;3.75;2.85;;;19.60;73.80;;;;;;5014365;28;20034;-84
2022/08/13 06:53:54;;;;;;;3.40;2.85;;;19.60;73.80;;;;;;5017104;28;20033;-83
2022/08/13 06:56:29;;;;;;;2.47;2.15;;;19.60;73.80;;;;;;5017078;28;20036;-84
2022/08/13 06:58:58;;;;;;;4.15;2.78;;;19.70;74.00;;;;;;5019759;28;20042;-83
2022/08/13 07:01:25;;;;;;;4.65;2.95;;;19.80;73.90;;;;;;5017148;28;20029;-84
2022/08/13 07:03:52;;;;;;;3.78;2.33;;;19.80;73.60;;;;;;5014940;28;20501;-84
2022/08/13 07:06:31;;;;;;;3.70;2.45;;;19.80;73.70;;;;;;5017538;28;20026;-85
2022/08/13 07:08:59;;;;;;;4.13;2.55;;;19.80;73.50;;;;;;5016001;28;20057;-84
2022/08/13 07:11:31;;;;;;;2.58;2.25;;;19.80;73.60;;;;;;5016178;28;20029;-83
2022/08/13 07:14:00;;;;;;;6.90;2.70;;;19.90;73.60;;;;;;5015524;28;20032;-82
2022/08/13 07:16:30;;;;;;;4.90;1.80;;;19.90;73.80;;;;;;5017822;28;20022;-84
2022/08/13 07:18:57;;;;;;;5.38;1.85;;;19.90;74.10;;;;;;5019171;28;20037;-83
2022/08/13 07:21:24;;;;;;;2.65;1.73;;;19.80;73.70;;;;;;5018761;28;20437;-83
2022/08/13 07:23:51;;;;;;;4.63;1.70;;;19.90;73.50;;;;;;5017270;28;20026;-82
2022/08/13 07:26:18;;;;;;;3.03;1.85;;;19.80;73.80;;;;;;5019427;28;20029;-83
2022/08/13 07:28:53;;;;;;;2.50;1.73;;;19.70;73.80;;;;;;5018273;28;20368;-82
2022/08/13 07:31:40;;;;;;;6.13;1.77;;;19.70;74.20;;;;;;5014210;28;20022;-82
2022/08/13 07:34:15;;;;;;;2.80;2.00;;;19.80;74.60;;;;;;5015671;28;20048;-82
2022/08/13 07:36:41;;;;;;;2.35;1.90;;;19.80;74.70;;;;;;5026833;28;20026;-83
2022/08/13 07:39:09;;;;;;;3.70;2.03;;;19.80;75.00;;;;;;5011264;28;20033;-83
2022/08/13 07:41:51;;;;;;;2.97;2.15;;;19.80;74.80;;;;;;5013194;28;20053;-84
2022/08/13 07:44:21;;;;;;;2.95;1.88;;;19.80;74.90;;;;;;5016151;28;20029;-84
2022/08/13 07:46:53;;;;;;;2.30;1.70;;;19.90;74.90;;;;;;5014571;28;20379;-83
2022/08/13 07:49:20;;;;;;;2.72;1.70;;;19.80;74.80;;;;;;5015236;28;20022;-83
2022/08/13 07:51:47;;;;;;;4.97;1.75;;;19.80;74.60;;;;;;5013670;28;20117;-82
2022/08/13 07:54:14;;;;;;;2.33;2.08;;;19.90;74.70;;;;;;5015892;28;20029;-83
2022/08/13 07:56:40;;;;;;;2.15;1.95;;;20.00;74.60;;;;;;5014068;28;20029;-83
2022/08/13 07:59:11;;;;;;;5.57;2.10;;;20.10;74.20;;;;;;5013435;28;20048;-84
2022/08/13 08:01:51;;;;;;;3.20;2.15;;;20.20;73.80;;;;;;5030313;28;20482;-84
2022/08/13 08:04:30;;;;;;;2.63;1.88;;;20.30;74.00;;;;;;5017922;28;20053;-83
2022/08/13 08:07:03;;;;;;;3.58;2.10;;;20.40;73.70;;;;;;5017542;28;20488;-83
2022/08/13 08:09:30;;;;;;;3.20;1.95;;;20.40;73.50;;;;;;5033368;28;20467;-82
2022/08/13 08:14:45;;;;;;;2.35;1.45;;;20.50;73.20;;;;;;5018667;28;20044;-82
2022/08/13 08:17:17;;;;;;;4.80;2.13;;;20.70;72.90;;;;;;5022652;28;20029;-85
2022/08/13 08:19:50;;;;;;;2.63;2.00;;;20.70;72.90;;;;;;5018697;28;20033;-82
2022/08/13 08:22:30;;;;;;;2.47;1.92;;;20.90;72.70;;;;;;5023527;28;20034;-84
2022/08/13 08:25:00;;;;;;;2.97;2.17;;;20.90;72.20;;;;;;5014561;28;20116;-82
2022/08/13 08:27:32;;;;;;;4.53;1.92;;;21.00;72.30;;;;;;5020848;28;20420;-82
2022/08/13 08:30:00;;;;;;;6.55;2.00;;;21.10;72.00;;;;;;5018533;28;20022;-83
2022/08/13 08:32:26;;;;;;;3.47;1.80;;;21.10;71.90;;;;;;5015653;28;20034;-83
2022/08/13 08:34:54;;;;;;;2.13;1.88;;;21.20;71.90;;;;;;5015970;28;20416;-83
2022/08/13 08:43:00;;;;;;;4.07;2.20;;;21.50;71.30;;;;;;5021012;28;20028;-84
2022/08/13 08:45:27;;;;;;;7.50;2.20;;;21.50;71.10;;;;;;5019068;28;20079;-84
2022/08/13 08:48:00;;;;;;;4.50;2.25;;;21.60;71.10;;;;;;5018640;28;20039;-82
2022/08/13 08:50:32;;;;;;;2.40;2.00;;;21.70;70.70;;;;;;5018488;28;20034;-84
2022/08/13 08:55:48;;;;;;;3.63;1.80;;;21.80;70.50;;;;;;5017938;28;20037;-83
2022/08/13 08:58:14;;;;;;;2.65;1.85;;;22.00;70.50;;;;;;5019935;28;20037;-84
2022/08/13 09:00:41;;;;;;;4.25;1.80;;;22.20;70.00;;;;;;5017685;28;20022;-82
2022/08/13 09:03:10;;;;;;;4.55;2.45;;;22.20;69.50;;;;;;5019996;28;20522;-81
2022/08/13 09:05:36;;;;;;;2.30;1.85;;;22.40;69.70;;;;;;5017444;28;20021;-83
2022/08/13 09:08:06;;;;;;;2.97;1.95;;;22.60;68.80;;;;;;5023563;28;20121;-81
2022/08/13 09:10:36;;;;;;;4.47;2.47;;;22.70;68.10;;;;;;5016045;28;20058;-83
2022/08/13 09:13:03;;;;;;;2.83;1.65;;;22.90;68.20;;;;;;5010766;28;20034;-83
2022/08/13 09:15:33;;;;;;;2.75;1.80;;;23.10;67.90;;;;;;5009976;28;20036;-84
2022/08/13 09:18:00;;;;;;;2.47;1.70;;;23.20;67.30;;;;;;5017652;28;20030;-85
2022/08/13 09:20:33;;;;;;;2.65;1.73;;;23.20;67.30;;;;;;5016641;28;20103;-84
2022/08/13 09:23:14;;;;;;;5.53;2.20;;;23.40;67.40;;;;;;5017022;28;20036;-84
2022/08/13 09:25:48;;;;;;;4.50;1.85;;;23.40;67.00;;;;;;5016406;28;20026;-84
2022/08/13 09:28:24;;;;;;;1.98;1.60;;;23.40;66.70;;;;;;5017101;28;20022;-84
2022/08/13 09:31:02;;;;;;;4.53;1.92;;;23.40;67.00;;;;;;5026914;28;20025;-84
2022/08/13 09:33:31;;;;;;;5.20;1.90;;;23.40;67.00;;;;;;5034228;28;20014;-85
2022/08/13 09:36:00;;;;;;;4.57;2.28;;;23.40;67.00;;;;;;5017400;28;20056;-83
2022/08/13 09:38:29;;;;;;;5.13;2.00;;;23.40;66.90;;;;;;5017762;28;20052;-84
2022/08/13 09:41:17;;;;;;;2.53;1.80;;;23.50;67.00;;;;;;5016966;28;20053;-84
2022/08/13 09:43:44;;;;;;;7.05;1.80;;;23.50;67.00;;;;;;5016362;28;20069;-85
2022/08/13 09:46:11;;;;;;;6.53;2.03;;;23.50;66.50;;;;;;5017208;28;20028;-84
2022/08/13 09:48:51;;;;;;;2.30;1.50;;;23.60;66.70;;;;;;5018284;28;20033;-84
2022/08/13 09:51:17;;;;;;;2.78;2.00;;;23.70;66.30;;;;;;5016718;28;20005;-84
2022/08/13 09:53:56;;;;;;;2.22;1.80;;;23.80;66.20;;;;;;5017748;28;20083;-84
2022/08/13 09:56:22;;;;;;;5.13;1.80;;;23.90;64.30;;;;;;5018236;28;20033;-84
2022/08/13 09:58:50;;;;;;;3.00;2.05;;;24.10;64.50;;;;;;5016644;28;20029;-85
2022/08/13 10:01:18;;;;;;;2.47;1.92;;;24.10;64.40;;;;;;5017062;28;20060;-85
2022/08/13 10:03:45;;;;;;;9.65;2.00;;;24.20;64.20;;;;;;5016836;28;20081;-84
2022/08/13 10:06:28;;;;;;;3.88;2.03;;;24.30;64.20;;;;;;5017197;28;20025;-86
2022/08/13 10:08:59;;;;;;;4.20;1.77;;;24.30;63.50;;;;;;5014971;28;20037;-84
2022/08/13 10:11:33;;;;;;;5.13;1.55;;;24.40;62.90;;;;;;5016696;28;20053;-84
2022/08/13 10:14:00;;;;;;;3.25;1.85;;;24.50;62.30;;;;;;5018376;28;20029;-85
2022/08/13 10:16:28;;;;;;;4.35;1.50;;;24.60;61.50;;;;;;5016526;28;20029;-83
2022/08/13 10:18:57;;;;;;;5.40;1.70;;;24.70;60.70;;;;;;5017160;28;20022;-83
2022/08/13 10:21:24;;;;;;;2.47;1.55;;;24.90;60.50;;;;;;5017559;28;20030;-82
2022/08/13 10:23:50;;;;;;;4.32;1.45;;;24.90;59.80;;;;;;5016631;28;20052;-85
2022/08/13 10:26:19;;;;;;;3.53;1.60;;;25.10;59.80;;;;;;5015675;28;20124;-85
2022/08/13 10:28:48;;;;;;;2.70;1.60;;;25.10;59.20;;;;;;5016621;28;20022;-85
2022/08/13 10:31:17;;;;;;;3.22;1.80;;;25.20;58.50;;;;;;5014046;28;20041;-84
2022/08/13 10:33:55;;;;;;;5.90;1.58;;;25.30;58.40;;;;;;5015965;28;20026;-85
2022/08/13 10:36:28;;;;;;;3.22;1.70;;;25.30;58.40;;;;;;5016275;28;20506;-84
2022/08/13 10:38:55;;;;;;;1.93;1.47;;;25.40;58.30;;;;;;5016024;28;20562;-85
2022/08/13 10:41:24;;;;;;;5.15;2.35;;;25.40;57.90;;;;;;5017775;28;20025;-85
2022/08/13 10:43:59;;;;;;;3.95;1.67;;;25.40;57.80;;;;;;5017318;28;20025;-84
2022/08/13 10:46:31;;;;;;;5.00;1.40;;;25.40;57.90;;;;;;5016166;28;20034;-85
2022/08/13 10:48:58;;;;;;;2.30;1.65;;;25.50;56.80;;;;;;5016102;28;20036;-84
2022/08/13 10:51:25;;;;;;;5.88;1.75;;;25.60;56.10;;;;;;5014987;28;20068;-83
2022/08/13 10:53:59;;;;;;;3.88;1.52;;;25.70;55.80;;;;;;5013777;28;20038;-83
2022/08/13 10:56:30;;;;;;;2.95;1.60;;;25.80;54.90;;;;;;5017434;28;20037;-83
2022/08/13 10:58:59;;;;;;;1.65;1.25;;;25.90;53.30;;;;;;5013510;28;20033;-84
2022/08/13 11:01:29;;;;;;;4.43;1.30;;;25.90;52.20;;;;;;5014449;28;20029;-84
2022/08/13 11:04:01;;;;;;;3.28;1.33;;;26.00;50.00;;;;;;5016296;28;20030;-84
2022/08/13 11:06:34;;;;;;;3.47;1.42;;;26.00;50.50;;;;;;5011863;28;20026;-84
2022/08/13 11:09:05;;;;;;;1.77;1.40;;;26.10;50.10;;;;;;5017076;28;20103;-85
2022/08/13 11:11:32;;;;;;;2.45;1.15;;;26.10;49.70;;;;;;5015189;28;20033;-84
2022/08/13 11:13:58;;;;;;;1.33;1.10;;;26.10;49.60;;;;;;5015804;28;20069;-86
2022/08/13 11:19:25;;;;;;;3.40;1.15;;;26.20;49.50;;;;;;5014662;28;20130;-84
2022/08/13 11:22:06;;;;;;;1.50;1.27;;;26.20;49.30;;;;;;5007400;28;20071;-84
2022/08/13 11:24:33;;;;;;;3.42;1.60;;;26.20;49.20;;;;;;5010049;28;20022;-83
2022/08/13 11:26:59;;;;;;;2.10;1.30;;;26.20;49.50;;;;;;5014923;28;20026;-84
2022/08/13 11:29:24;;;;;;;3.85;1.58;;;26.20;49.30;;;;;;5012655;28;20479;-84
2022/08/13 11:31:50;;;;;;;2.05;1.25;;;26.30;49.90;;;;;;5014176;28;20077;-85
2022/08/13 11:34:16;;;;;;;3.55;1.30;;;26.20;49.60;;;;;;5026206;28;20513;-84
2022/08/13 11:36:47;;;;;;;3.97;1.23;;;26.30;49.60;;;;;;5014316;28;20022;-83
2022/08/13 11:39:20;;;;;;;1.77;1.20;;;26.30;49.50;;;;;;5011289;28;20041;-83
2022/08/13 11:41:45;;;;;;;3.30;1.38;;;26.20;49.40;;;;;;5004392;28;20034;-84
2022/08/13 11:44:20;;;;;;;7.10;1.42;;;26.20;49.40;;;;;;5010651;28;20037;-84
2022/08/13 11:46:52;;;;;;;3.10;1.23;;;26.20;49.10;;;;;;5014990;28;20084;-83
2022/08/13 11:49:21;;;;;;;2.17;1.10;;;26.30;49.50;;;;;;5012035;28;20033;-83
2022/08/13 11:51:50;;;;;;;5.20;1.23;;;26.30;49.30;;;;;;5012057;28;20113;-84
2022/08/13 11:54:18;;;;;;;3.67;1.35;;;26.30;49.50;;;;;;5013043;28;20034;-84
2022/08/13 11:56:53;;;;;;;3.53;1.55;;;26.30;49.30;;;;;;5010735;28;20025;-83
2022/08/13 11:59:18;;;;;;;1.38;1.25;;;26.30;49.50;;;;;;5020060;28;20034;-84
2022/08/13 12:01:47;;;;;;;4.15;1.42;;;26.30;49.40;;;;;;5018333;28;20028;-83
2022/08/13 12:04:13;;;;;;;3.53;1.30;;;26.30;48.10;;;;;;5013575;28;20030;-84
2022/08/13 12:06:40;;;;;;;1.67;1.40;;;26.30;48.30;;;;;;5015631;28;20064;-84
2022/08/13 12:09:08;;;;;;;2.33;1.33;;;26.40;48.90;;;;;;5015165;28;20030;-83
2022/08/13 12:11:43;;;;;;;2.72;1.40;;;26.30;49.10;;;;;;5011447;28;20026;-83
2022/08/13 12:14:14;;;;;;;1.50;1.20;;;26.30;49.10;;;;;;5014261;28;20026;-85
2022/08/13 12:16:40;;;;;;;3.03;1.20;;;26.30;49.30;;;;;;5013749;28;20112;-83
2022/08/13 12:19:11;;;;;;;1.92;0.90;;;26.30;49.40;;;;;;5014419;28;20098;-84
2022/08/13 12:21:43;;;;;;;1.70;1.20;;;26.30;49.10;;;;;;5014969;28;20026;-84
2022/08/13 12:24:12;;;;;;;2.38;1.30;;;26.40;48.60;;;;;;5012045;28;20037;-84
2022/08/13 12:26:50;;;;;;;4.00;1.77;;;26.40;48.60;;;;;;5014614;28;20497;-83
2022/08/13 12:29:15;;;;;;;4.45;1.30;;;26.50;47.60;;;;;;5012026;28;20030;-84
2022/08/13 12:31:44;;;;;;;3.53;1.30;;;26.50;47.50;;;;;;5014644;28;20062;-83
2022/08/13 12:34:13;;;;;;;1.42;1.10;;;26.50;47.20;;;;;;5011411;28;20030;-83
2022/08/13 12:36:44;;;;;;;1.70;1.10;;;26.50;47.30;;;;;;5011502;28;20026;-83
2022/08/13 12:39:10;;;;;;;4.30;1.58;;;26.40;47.70;;;;;;5015059;28;20394;-83
2022/08/13 12:41:36;;;;;;;1.95;1.10;;;26.40;47.90;;;;;;5011701;28;20036;-83
2022/08/13 12:44:01;;;;;;;2.22;1.20;;;26.40;48.20;;;;;;5013417;28;20057;-83
2022/08/13 12:46:27;;;;;;;2.38;1.40;;;26.50;48.50;;;;;;5024696;28;20022;-83
2022/08/13 12:48:55;;;;;;;3.72;1.30;;;26.50;47.90;;;;;;5013539;28;20030;-84
2022/08/13 12:51:24;;;;;;;3.10;1.52;;;26.50;48.10;;;;;;5017215;28;20030;-84
2022/08/13 12:54:05;;;;;;;7.00;1.45;;;26.50;48.20;;;;;;5014484;28;20018;-83
2022/08/13 12:56:30;;;;;;;3.35;1.35;;;26.70;48.10;;;;;;5012892;28;20025;-83
2022/08/13 12:58:56;;;;;;;1.75;1.35;;;26.70;48.10;;;;;;5015214;28;20026;-83
2022/08/13 13:01:39;;;;;;;2.28;1.08;;;26.80;48.00;;;;;;5012314;28;20033;-84
2022/08/13 13:04:05;;;;;;;2.33;1.35;;;26.80;48.30;;;;;;5013030;28;20030;-83
2022/08/13 13:06:31;;;;;;;1.80;1.33;;;26.80;47.40;;;;;;5018377;28;20037;-84
2022/08/13 13:08:59;;;;;;;2.92;1.10;;;26.90;47.70;;;;;;5016077;28;20517;-84
2022/08/13 13:11:31;;;;;;;5.20;1.27;;;27.00;47.30;;;;;;5017399;28;20022;-84
2022/08/13 13:14:10;;;;;;;1.50;1.30;;;27.00;47.40;;;;;;5018191;28;20026;-84
2022/08/13 13:16:40;;;;;;;3.72;1.23;;;27.10;47.20;;;;;;5014778;28;20049;-83
2022/08/13 13:19:09;;;;;;;1.73;1.42;;;27.10;46.60;;;;;;5015833;28;20070;-82
2022/08/13 13:21:35;;;;;;;1.70;1.17;;;27.10;45.90;;;;;;5011400;28;20065;-84
2022/08/13 13:24:27;;;;;;;2.88;1.27;;;27.10;45.70;;;;;;5018779;28;20965;-83
2022/08/13 13:26:59;;;;;;;2.80;1.20;;;27.10;46.30;;;;;;5015059;28;20391;-83
2022/08/13 13:29:32;;;;;;;1.67;1.10;;;27.10;45.40;;;;;;5033960;28;20049;-83
2022/08/13 13:32:03;;;;;;;3.65;1.40;;;27.10;45.50;;;;;;5018629;28;20121;-83
2022/08/13 13:34:29;;;;;;;1.25;1.15;;;27.20;45.70;;;;;;5019401;28;20033;-83
2022/08/13 13:36:58;;;;;;;2.70;1.40;;;27.20;46.00;;;;;;5019988;28;20037;-83